createdAt,value
2023-01-06T00:01:41.643Z,11.00
2023-01-06T00:05:44.652Z,11.00
2023-01-06T00:09:48.794Z,10.90
2023-01-06T00:13:51.716Z,10.90
2023-01-06T00:17:54.501Z,11.00
2023-01-06T00:21:57.293Z,10.90
2023-01-06T00:26:01.699Z,10.80
2023-01-06T00:30:05.513Z,10.80
2023-01-06T00:34:08.390Z,10.80
2023-01-06T00:38:11.616Z,10.70
2023-01-06T00:42:15.770Z,10.70
2023-01-06T00:46:19.527Z,10.60
2023-01-06T00:50:22.671Z,10.50
2023-01-06T00:54:25.694Z,10.60
2023-01-06T00:58:32.383Z,10.60
2023-01-06T01:02:35.495Z,10.40
2023-01-06T01:06:39.218Z,10.40
2023-01-06T01:10:42.047Z,10.30
2023-01-06T01:14:48.356Z,10.20
2023-01-06T01:18:50.974Z,10.20
2023-01-06T01:22:53.767Z,10.10
2023-01-06T01:26:56.799Z,10.10
2023-01-06T01:31:03.355Z,10.10
2023-01-06T01:35:07.097Z,10.00
2023-01-06T01:39:10.540Z,10.00
2023-01-06T01:43:13.696Z,9.90
2023-01-06T01:47:20.992Z,9.80
2023-01-06T01:51:29.706Z,9.60
2023-01-06T01:55:33.474Z,9.60
2023-01-06T01:59:38.416Z,9.60
2023-01-06T02:03:43.634Z,9.50
2023-01-06T02:07:47.480Z,9.50
2023-01-06T02:11:52.213Z,9.40
2023-01-06T02:16:02.532Z,9.50
2023-01-06T02:20:27.572Z,9.40
2023-01-06T02:24:54.907Z,9.40
2023-01-06T02:29:41.965Z,9.30
2023-01-06T02:33:50.052Z,9.20
2023-01-06T02:38:01.610Z,9.20
2023-01-06T02:42:18.127Z,9.10
2023-01-06T02:46:41.237Z,9.10
2023-01-06T02:50:52.198Z,9.00
2023-01-06T02:55:03.216Z,8.90
2023-01-06T02:59:11.251Z,8.80
2023-01-06T03:03:17.325Z,8.90
2023-01-06T03:07:24.016Z,8.80
2023-01-06T03:11:32.283Z,8.80
2023-01-06T03:15:35.726Z,8.70
2023-01-06T03:19:38.963Z,8.70
2023-01-06T03:23:43.822Z,8.60
2023-01-06T03:27:46.683Z,8.60
2023-01-06T03:31:57.838Z,8.70
2023-01-06T03:36:09.305Z,8.60
2023-01-06T03:40:23.544Z,8.50
2023-01-06T03:44:36.192Z,8.70
2023-01-06T03:48:49.420Z,8.60
2023-01-06T03:52:59.242Z,8.30
2023-01-06T03:57:08.236Z,8.30
2023-01-06T04:01:11.945Z,8.20
2023-01-06T04:05:18.742Z,8.10
2023-01-06T04:09:22.606Z,8.00
2023-01-06T04:13:27.775Z,8.00
2023-01-06T04:17:32.446Z,7.90
2023-01-06T04:21:35.389Z,8.00
2023-01-06T04:25:38.900Z,8.00
2023-01-06T04:29:50.351Z,7.70
2023-01-06T04:33:53.143Z,7.70
2023-01-06T04:37:56.171Z,7.70
2023-01-06T04:41:58.951Z,7.60
2023-01-06T04:46:03.146Z,7.60
2023-01-06T04:50:06.695Z,7.50
2023-01-06T04:54:09.511Z,7.50
2023-01-06T04:58:12.314Z,7.50
2023-01-06T05:02:16.478Z,7.50
2023-01-06T05:06:19.699Z,7.60
2023-01-06T05:10:22.760Z,7.40
2023-01-06T05:14:25.569Z,7.50
2023-01-06T05:18:29.730Z,7.40
2023-01-06T05:22:32.551Z,7.30
2023-01-06T05:26:35.317Z,7.30
2023-01-06T05:30:38.149Z,7.30
2023-01-06T05:34:42.336Z,7.30
2023-01-06T05:38:45.609Z,7.20
2023-01-06T05:42:48.440Z,7.00
2023-01-06T05:46:51.236Z,7.00
2023-01-06T05:51:01.851Z,6.80
2023-01-06T05:55:05.352Z,7.00
2023-01-06T05:59:08.151Z,6.80
2023-01-06T06:03:10.938Z,6.80
2023-01-06T06:07:15.064Z,6.70
2023-01-06T06:11:19.865Z,6.70
2023-01-06T06:15:22.518Z,6.60
2023-01-06T06:19:25.363Z,6.50
2023-01-06T06:23:29.430Z,6.40
2023-01-06T06:27:32.093Z,6.40
2023-01-06T06:31:35.358Z,6.50
2023-01-06T06:35:38.157Z,6.60
2023-01-06T06:39:42.296Z,6.70
2023-01-06T06:43:45.677Z,6.70
2023-01-06T06:47:48.478Z,6.60
2023-01-06T06:51:51.244Z,6.60
2023-01-06T06:55:56.637Z,6.60
2023-01-06T06:59:59.516Z,6.50
2023-01-06T07:04:02.284Z,6.40
2023-01-06T07:08:05.565Z,6.60
2023-01-06T07:12:09.825Z,6.50
2023-01-06T07:16:12.696Z,6.60
2023-01-06T07:20:16.626Z,6.50
2023-01-06T07:24:19.461Z,6.40
2023-01-06T07:28:23.722Z,6.30
2023-01-06T07:32:26.524Z,6.30
2023-01-06T07:36:29.375Z,6.30
2023-01-06T07:40:32.285Z,6.30
2023-01-06T07:44:36.439Z,6.30
2023-01-06T07:48:39.255Z,6.40
2023-01-06T07:52:42.100Z,6.50
2023-01-06T07:56:45.067Z,6.50
2023-01-06T08:00:49.170Z,6.50
2023-01-06T08:04:51.980Z,6.50
2023-01-06T08:08:54.771Z,6.60
2023-01-06T08:12:57.545Z,6.70
2023-01-06T08:17:01.758Z,6.70
2023-01-06T08:21:06.393Z,6.80
2023-01-06T08:25:10.142Z,6.90
2023-01-06T08:29:12.923Z,6.90
2023-01-06T08:33:17.038Z,6.90
2023-01-06T08:37:19.805Z,7.10
2023-01-06T08:41:22.556Z,7.10
2023-01-06T08:45:25.299Z,7.20
2023-01-06T08:49:29.461Z,7.30
2023-01-06T08:53:33.628Z,7.40
2023-01-06T08:57:36.482Z,7.30
2023-01-06T09:01:39.434Z,7.50
2023-01-06T09:05:43.663Z,7.60
2023-01-06T09:09:46.525Z,7.80
2023-01-06T09:13:50.783Z,7.80
2023-01-06T09:17:53.637Z,7.80
2023-01-06T09:22:00.215Z,8.00
2023-01-06T09:26:03.759Z,8.00
2023-01-06T09:30:09.071Z,8.20
2023-01-06T09:34:11.808Z,8.30
2023-01-06T09:38:17.765Z,8.60
2023-01-06T09:42:34.731Z,8.70
2023-01-06T09:46:40.991Z,9.20
2023-01-06T09:50:45.766Z,10.50
2023-01-06T09:54:57.328Z,12.30
2023-01-06T09:59:09.574Z,14.40
2023-01-06T10:03:15.512Z,15.70
2023-01-06T10:07:25.241Z,17.00
2023-01-06T10:11:42.791Z,18.20
2023-01-06T10:15:52.848Z,18.70
2023-01-06T10:20:07.909Z,19.60
2023-01-06T10:24:34.789Z,20.40
2023-01-06T10:28:43.408Z,20.70
2023-01-06T10:32:48.562Z,21.00
2023-01-06T10:36:57.132Z,21.00
2023-01-06T10:41:11.775Z,21.20
2023-01-06T10:45:16.337Z,21.10
2023-01-06T10:49:20.209Z,21.50
2023-01-06T10:53:23.023Z,21.90
2023-01-06T10:57:29.774Z,21.80
2023-01-06T11:01:34.904Z,21.70
2023-01-06T11:05:37.950Z,21.60
2023-01-06T11:09:43.779Z,21.80
2023-01-06T11:13:50.068Z,22.00
2023-01-06T11:17:54.246Z,22.60
2023-01-06T11:21:57.097Z,22.90
2023-01-06T11:26:13.260Z,22.80
2023-01-06T11:30:22.408Z,22.60
2023-01-06T11:34:29.011Z,22.60
2023-01-06T11:38:32.014Z,22.30
2023-01-06T11:42:35.695Z,22.50
2023-01-06T11:46:40.660Z,22.40
2023-01-06T11:50:53.375Z,22.60
2023-01-06T11:55:04.431Z,22.50
2023-01-06T11:59:11.575Z,22.40
2023-01-06T12:03:24.368Z,22.00
2023-01-06T12:07:41.583Z,21.90
2023-01-06T12:11:48.325Z,22.20
2023-01-06T12:15:59.664Z,22.00
2023-01-06T12:20:06.997Z,21.50
2023-01-06T12:24:17.546Z,21.20
2023-01-06T12:28:25.453Z,20.90
2023-01-06T12:32:35.572Z,20.60
2023-01-06T12:36:43.791Z,20.60
2023-01-06T12:40:51.688Z,20.60
2023-01-06T12:44:59.860Z,20.20
2023-01-06T12:49:05.714Z,20.00
2023-01-06T12:53:20.563Z,20.10
2023-01-06T12:57:47.357Z,19.70
2023-01-06T13:01:54.426Z,18.90
2023-01-06T13:06:11.319Z,18.40
2023-01-06T13:10:23.322Z,17.80
2023-01-06T13:14:33.736Z,17.30
2023-01-06T13:18:42.688Z,16.60
2023-01-06T13:22:55.530Z,16.60
2023-01-06T13:27:21.256Z,16.50
2023-01-06T13:31:41.788Z,16.40
2023-01-06T13:36:07.569Z,16.40
2023-01-06T13:40:15.192Z,15.60
2023-01-06T13:44:21.712Z,15.20
2023-01-06T13:48:34.607Z,15.00
2023-01-06T13:52:37.700Z,14.80
2023-01-06T13:56:40.495Z,14.70
2023-01-06T14:00:44.296Z,14.50
2023-01-06T14:04:49.149Z,14.10
2023-01-06T14:08:59.514Z,14.00
2023-01-06T14:13:09.092Z,14.20
2023-01-06T14:17:31.628Z,13.80
2023-01-06T14:21:38.233Z,13.50
2023-01-06T14:25:45.334Z,13.80
2023-01-06T14:30:05.044Z,13.90
2023-01-06T14:34:15.141Z,13.40
2023-01-06T14:38:26.954Z,13.60
2023-01-06T14:42:34.722Z,13.20
2023-01-06T14:46:42.360Z,13.20
2023-01-06T14:50:50.001Z,13.10
2023-01-06T14:54:55.780Z,13.10
2023-01-06T14:59:07.157Z,12.90
2023-01-06T15:03:23.745Z,13.30
2023-01-06T15:07:26.991Z,13.20
2023-01-06T15:11:33.477Z,13.10
2023-01-06T15:15:38.153Z,12.70
2023-01-06T15:19:47.329Z,12.50
2023-01-06T15:23:53.781Z,12.40
2023-01-06T15:27:57.832Z,12.40
2023-01-06T15:32:02.827Z,12.40
2023-01-06T15:36:07.484Z,12.50
2023-01-06T15:40:16.877Z,12.40
2023-01-06T15:44:26.756Z,12.20
2023-01-06T15:48:34.555Z,12.10
2023-01-06T15:52:45.242Z,12.20
2023-01-06T15:56:48.161Z,12.00
2023-01-06T16:00:59.368Z,12.00
2023-01-06T16:05:02.459Z,12.10
2023-01-06T16:09:25.674Z,12.00
2023-01-06T16:13:30.047Z,11.90
2023-01-06T16:17:34.996Z,12.00
2023-01-06T16:21:40.238Z,12.00
2023-01-06T16:25:43.085Z,11.90
2023-01-06T16:29:45.875Z,11.90
2023-01-06T16:33:50.166Z,12.00
2023-01-06T16:37:53.972Z,11.80
2023-01-06T16:42:38.839Z,11.60
2023-01-06T16:46:41.727Z,11.80
2023-01-06T16:50:53.247Z,11.80
2023-01-06T16:54:58.185Z,11.70
2023-01-06T16:59:01.659Z,11.90
2023-01-06T17:03:14.167Z,11.80
2023-01-06T17:07:20.814Z,11.50
2023-01-06T17:11:25.869Z,11.60
2023-01-06T17:15:28.755Z,11.50
2023-01-06T17:19:36.831Z,11.50
2023-01-06T17:23:49.865Z,11.40
2023-01-06T17:27:56.227Z,11.50
2023-01-06T17:32:04.253Z,11.40
2023-01-06T17:36:15.644Z,11.40
2023-01-06T17:40:27.304Z,11.50
2023-01-06T17:44:36.227Z,11.40
2023-01-06T17:48:39.085Z,11.40
2023-01-06T17:52:43.771Z,11.30
2023-01-06T17:56:48.309Z,11.20
2023-01-06T18:00:51.194Z,11.40
2023-01-06T18:04:54.110Z,11.40
2023-01-06T18:09:12.590Z,11.50
2023-01-06T18:13:18.513Z,11.40
2023-01-06T18:17:24.555Z,11.30
2023-01-06T18:21:36.201Z,11.20
2023-01-06T18:25:41.711Z,11.20
2023-01-06T18:29:46.393Z,11.20
2023-01-06T18:33:51.611Z,11.20
2023-01-06T18:37:56.211Z,11.20
2023-01-06T18:42:27.289Z,11.20
2023-01-06T18:46:33.336Z,11.00
2023-01-06T18:50:41.712Z,11.10
2023-01-06T18:54:44.763Z,11.20
2023-01-06T18:58:49.973Z,11.20
2023-01-06T19:03:03.960Z,11.20
2023-01-06T19:07:13.988Z,11.20
2023-01-06T19:11:18.232Z,11.10
2023-01-06T19:15:24.119Z,11.10
2023-01-06T19:19:32.445Z,11.10
2023-01-06T19:23:35.991Z,11.10
2023-01-06T19:27:45.917Z,11.00
2023-01-06T19:31:55.915Z,11.00
2023-01-06T19:36:07.616Z,10.80
2023-01-06T19:40:26.218Z,10.70
2023-01-06T19:44:32.450Z,10.60
2023-01-06T19:48:39.423Z,10.60
2023-01-06T19:52:43.800Z,10.70
2023-01-06T19:56:47.636Z,10.70
2023-01-06T20:00:52.428Z,10.60
2023-01-06T20:04:55.394Z,10.50
2023-01-06T20:08:59.554Z,10.30
2023-01-06T20:13:02.355Z,10.30
2023-01-06T20:17:05.136Z,10.40
2023-01-06T20:21:08.093Z,10.30
2023-01-06T20:25:12.388Z,10.30
2023-01-06T20:29:15.310Z,10.30
2023-01-06T20:33:18.148Z,10.20
2023-01-06T20:37:21.063Z,10.30
2023-01-06T20:41:25.330Z,10.30
2023-01-06T20:45:28.144Z,10.20
2023-01-06T20:49:31.104Z,10.40
2023-01-06T20:53:34.029Z,10.30
2023-01-06T20:57:38.382Z,10.40
2023-01-06T21:01:41.356Z,10.50
2023-01-06T21:05:44.352Z,10.30
2023-01-06T21:09:47.188Z,10.30
2023-01-06T21:13:51.360Z,10.30
2023-01-06T21:17:54.440Z,10.30
2023-01-06T21:21:57.373Z,10.40
2023-01-06T21:26:00.222Z,10.40
2023-01-06T21:30:05.177Z,10.50
2023-01-06T21:34:08.062Z,10.50
2023-01-06T21:38:10.919Z,10.50
2023-01-06T21:42:31.103Z,10.50
2023-01-06T21:46:38.049Z,10.40
2023-01-06T21:50:44.359Z,10.40
2023-01-06T21:54:47.108Z,10.40
2023-01-06T21:58:50.226Z,10.40
2023-01-06T22:02:54.909Z,10.50
2023-01-06T22:07:01.193Z,10.40
2023-01-06T22:11:04.779Z,10.30
2023-01-06T22:15:09.687Z,10.20
2023-01-06T22:19:15.717Z,10.20
2023-01-06T22:23:21.927Z,10.20
2023-01-06T22:27:25.065Z,10.20
2023-01-06T22:31:27.891Z,10.40
2023-01-06T22:35:32.306Z,10.30
2023-01-06T22:39:35.117Z,10.20
2023-01-06T22:43:38.104Z,10.10
2023-01-06T22:47:41.119Z,10.10
2023-01-06T22:51:45.327Z,10.10
2023-01-06T22:55:57.158Z,10.10
2023-01-06T23:00:00.308Z,10.00
2023-01-06T23:04:03.522Z,10.10
2023-01-06T23:08:07.891Z,10.10
2023-01-06T23:12:10.832Z,9.90
2023-01-06T23:16:15.642Z,9.90
2023-01-06T23:20:18.749Z,10.10
2023-01-06T23:24:22.975Z,10.10
2023-01-06T23:28:25.888Z,10.10
2023-01-06T23:32:28.736Z,10.00
2023-01-06T23:36:31.852Z,9.90
2023-01-06T23:40:36.064Z,9.80
2023-01-06T23:44:38.863Z,9.80
2023-01-06T23:48:42.789Z,9.80
2023-01-06T23:52:45.642Z,9.90
2023-01-06T23:56:49.819Z,9.90
